sensor_id;sensor_type;location;lat;lon;timestamp;pressure;altitude;pressure_sealevel;temperature
74915;BMP280;63475;45.140;-75.616;2023-05-01T00:00:36;98442.94;;;11.19
74915;BMP280;63475;45.140;-75.616;2023-05-01T00:01:37;98426.28;;;11.18
74915;BMP280;63475;45.140;-75.616;2023-05-01T00:02:38;98425.56;;;11.18
74915;BMP280;63475;45.140;-75.616;2023-05-01T00:03:39;98395.59;;;11.12
74915;BMP280;63475;45.140;-75.616;2023-05-01T00:04:40;98397.06;;;11.13
74915;BMP280;63475;45.140;-75.616;2023-05-01T00:05:41;98375.16;;;11.12
74915;BMP280;63475;45.140;-75.616;2023-05-01T00:06:42;98379.91;;;11.08
74915;BMP280;63475;45.140;-75.616;2023-05-01T00:07:43;98356.59;;;11.12
74915;BMP280;63475;45.140;-75.616;2023-05-01T00:08:43;98357.78;;;11.11
74915;BMP280;63475;45.140;-75.616;2023-05-01T00:09:44;98354.88;;;11.09
74915;BMP280;63475;45.140;-75.616;2023-05-01T00:10:46;98366.22;;;11.10
74915;BMP280;63475;45.140;-75.616;2023-05-01T00:11:46;98333.50;;;10.98
74915;BMP280;63475;45.140;-75.616;2023-05-01T00:12:47;98330.25;;;11.03
74915;BMP280;63475;45.140;-75.616;2023-05-01T00:13:48;98331.50;;;11.08
74915;BMP280;63475;45.140;-75.616;2023-05-01T00:14:49;98327.09;;;11.05
74915;BMP280;63475;45.140;-75.616;2023-05-01T00:15:50;98329.75;;;11.05
74915;BMP280;63475;45.140;-75.616;2023-05-01T00:16:51;98326.38;;;11.04
74915;BMP280;63475;45.140;-75.616;2023-05-01T00:17:53;98333.13;;;11.05
74915;BMP280;63475;45.140;-75.616;2023-05-01T00:18:53;98328.03;;;11.02
74915;BMP280;63475;45.140;-75.616;2023-05-01T00:19:54;98319.16;;;11.05
74915;BMP280;63475;45.140;-75.616;2023-05-01T00:20:55;98319.91;;;11.05
74915;BMP280;63475;45.140;-75.616;2023-05-01T00:21:56;98318.25;;;11.08
74915;BMP280;63475;45.140;-75.616;2023-05-01T00:22:57;98318.72;;;11.06
74915;BMP280;63475;45.140;-75.616;2023-05-01T00:23:58;98321.91;;;11.10
74915;BMP280;63475;45.140;-75.616;2023-05-01T00:24:59;98319.44;;;11.07
74915;BMP280;63475;45.140;-75.616;2023-05-01T00:26:00;98301.09;;;11.03
74915;BMP280;63475;45.140;-75.616;2023-05-01T00:27:01;98310.31;;;11.08
74915;BMP280;63475;45.140;-75.616;2023-05-01T00:28:03;98295.88;;;11.09
74915;BMP280;63475;45.140;-75.616;2023-05-01T00:29:05;98296.16;;;11.11
74915;BMP280;63475;45.140;-75.616;2023-05-01T00:30:07;98298.97;;;11.07
74915;BMP280;63475;45.140;-75.616;2023-05-01T00:31:08;98286.84;;;11.01
74915;BMP280;63475;45.140;-75.616;2023-05-01T00:32:09;98292.50;;;11.08
74915;BMP280;63475;45.140;-75.616;2023-05-01T00:33:10;98276.44;;;10.97
74915;BMP280;63475;45.140;-75.616;2023-05-01T00:34:11;98292.41;;;11.03
74915;BMP280;63475;45.140;-75.616;2023-05-01T00:35:12;98284.56;;;10.94
74915;BMP280;63475;45.140;-75.616;2023-05-01T00:36:13;98283.09;;;10.93
74915;BMP280;63475;45.140;-75.616;2023-05-01T00:37:14;98306.28;;;10.98
74915;BMP280;63475;45.140;-75.616;2023-05-01T00:38:16;98302.91;;;10.97
74915;BMP280;63475;45.140;-75.616;2023-05-01T00:39:17;98299.63;;;11.02
74915;BMP280;63475;45.140;-75.616;2023-05-01T00:40:19;98282.00;;;10.99
74915;BMP280;63475;45.140;-75.616;2023-05-01T00:41:20;98294.97;;;10.97
74915;BMP280;63475;45.140;-75.616;2023-05-01T00:42:21;98286.28;;;10.97
74915;BMP280;63475;45.140;-75.616;2023-05-01T00:43:22;98284.19;;;11.01
74915;BMP280;63475;45.140;-75.616;2023-05-01T00:44:23;98277.34;;;10.94
74915;BMP280;63475;45.140;-75.616;2023-05-01T00:45:24;98268.13;;;10.90
74915;BMP280;63475;45.140;-75.616;2023-05-01T00:46:25;98289.13;;;10.93
74915;BMP280;63475;45.140;-75.616;2023-05-01T00:47:27;98280.44;;;10.93
74915;BMP280;63475;45.140;-75.616;2023-05-01T00:48:28;98273.16;;;10.88
74915;BMP280;63475;45.140;-75.616;2023-05-01T00:49:29;98277.06;;;10.92
74915;BMP280;63475;45.140;-75.616;2023-05-01T00:50:31;98261.00;;;10.81
74915;BMP280;63475;45.140;-75.616;2023-05-01T00:51:32;98277.63;;;10.67
74915;BMP280;63475;45.140;-75.616;2023-05-01T00:52:33;98224.84;;;10.48
74915;BMP280;63475;45.140;-75.616;2023-05-01T00:53:35;98253.72;;;10.76
74915;BMP280;63475;45.140;-75.616;2023-05-01T00:54:36;98245.13;;;10.81
74915;BMP280;63475;45.140;-75.616;2023-05-01T00:55:40;98248.69;;;10.78
74915;BMP280;63475;45.140;-75.616;2023-05-01T00:56:41;98234.72;;;10.77
74915;BMP280;63475;45.140;-75.616;2023-05-01T00:57:42;98222.50;;;10.80
74915;BMP280;63475;45.140;-75.616;2023-05-01T00:58:49;98239.03;;;10.75
74915;BMP280;63475;45.140;-75.616;2023-05-01T00:59:52;98202.06;;;10.66
74915;BMP280;63475;45.140;-75.616;2023-05-01T01:00:54;98233.00;;;10.74
74915;BMP280;63475;45.140;-75.616;2023-05-01T01:01:55;98229.41;;;10.77
74915;BMP280;63475;45.140;-75.616;2023-05-01T01:02:56;98207.06;;;10.78
74915;BMP280;63475;45.140;-75.616;2023-05-01T01:03:57;98197.66;;;10.63
74915;BMP280;63475;45.140;-75.616;2023-05-01T01:04:58;98226.31;;;10.79
74915;BMP280;63475;45.140;-75.616;2023-05-01T01:07:40;98214.91;;;10.73
74915;BMP280;63475;45.140;-75.616;2023-05-01T01:10:33;98207.63;;;10.68
74915;BMP280;63475;45.140;-75.616;2023-05-01T01:12:05;98214.38;;;10.69
74915;BMP280;63475;45.140;-75.616;2023-05-01T01:13:13;98212.72;;;10.71
74915;BMP280;63475;45.140;-75.616;2023-05-01T01:14:25;98197.66;;;10.63
74915;BMP280;63475;45.140;-75.616;2023-05-01T01:17:03;98198.84;;;10.62
74915;BMP280;63475;45.140;-75.616;2023-05-01T01:18:23;98192.09;;;10.61
74915;BMP280;63475;45.140;-75.616;2023-05-01T01:21:10;98167.66;;;10.66
74915;BMP280;63475;45.140;-75.616;2023-05-01T01:22:14;98148.03;;;10.43
74915;BMP280;63475;45.140;-75.616;2023-05-01T01:26:12;98182.25;;;10.61
74915;BMP280;63475;45.140;-75.616;2023-05-01T01:31:32;98159.00;;;10.36
74915;BMP280;63475;45.140;-75.616;2023-05-01T01:34:32;98193.75;;;10.43
74915;BMP280;63475;45.140;-75.616;2023-05-01T01:35:34;98188.09;;;10.36
74915;BMP280;63475;45.140;-75.616;2023-05-01T01:37:10;98171.94;;;10.19
74915;BMP280;63475;45.140;-75.616;2023-05-01T01:38:16;98174.50;;;10.43
74915;BMP280;63475;45.140;-75.616;2023-05-01T01:41:08;98186.75;;;10.40
74915;BMP280;63475;45.140;-75.616;2023-05-01T01:42:14;98184.63;;;10.44
74915;BMP280;63475;45.140;-75.616;2023-05-01T01:43:19;98164.56;;;10.38
74915;BMP280;63475;45.140;-75.616;2023-05-01T01:45:07;98170.94;;;10.46
74915;BMP280;63475;45.140;-75.616;2023-05-01T01:46:07;98180.25;;;10.41
74915;BMP280;63475;45.140;-75.616;2023-05-01T01:47:11;98159.28;;;10.38
74915;BMP280;63475;45.140;-75.616;2023-05-01T01:48:16;98171.69;;;10.46
74915;BMP280;63475;45.140;-75.616;2023-05-01T01:49:22;98189.72;;;10.48
74915;BMP280;63475;45.140;-75.616;2023-05-01T01:50:25;98186.28;;;10.42
74915;BMP280;63475;45.140;-75.616;2023-05-01T01:51:27;98187.66;;;10.37
74915;BMP280;63475;45.140;-75.616;2023-05-01T01:52:30;98187.34;;;10.06
74915;BMP280;63475;45.140;-75.616;2023-05-01T01:53:33;98177.69;;;10.03
74915;BMP280;63475;45.140;-75.616;2023-05-01T01:54:41;98193.28;;;10.16
74915;BMP280;63475;45.140;-75.616;2023-05-01T01:55:44;98208.06;;;10.22
74915;BMP280;63475;45.140;-75.616;2023-05-01T01:56:47;98200.75;;;10.17
74915;BMP280;63475;45.140;-75.616;2023-05-01T01:57:50;98229.75;;;10.26
74915;BMP280;63475;45.140;-75.616;2023-05-01T01:58:52;98242.84;;;10.30
74915;BMP280;63475;45.140;-75.616;2023-05-01T01:59:54;98265.03;;;10.32
74915;BMP280;63475;45.140;-75.616;2023-05-01T02:00:55;98288.09;;;10.32
74915;BMP280;63475;45.140;-75.616;2023-05-01T02:01:58;98288.31;;;10.19
74915;BMP280;63475;45.140;-75.616;2023-05-01T02:03:01;98319.13;;;10.31
74915;BMP280;63475;45.140;-75.616;2023-05-01T02:04:03;98313.69;;;10.26
74915;BMP280;63475;45.140;-75.616;2023-05-01T02:05:12;98345.22;;;10.38
74915;BMP280;63475;45.140;-75.616;2023-05-01T02:06:15;98341.75;;;10.32
74915;BMP280;63475;45.140;-75.616;2023-05-01T02:07:18;98332.09;;;10.20
74915;BMP280;63475;45.140;-75.616;2023-05-01T02:08:20;98342.50;;;10.24
74915;BMP280;63475;45.140;-75.616;2023-05-01T02:09:23;98352.31;;;10.32
74915;BMP280;63475;45.140;-75.616;2023-05-01T02:10:26;98353.31;;;10.35
74915;BMP280;63475;45.140;-75.616;2023-05-01T02:11:29;98330.38;;;10.17
74915;BMP280;63475;45.140;-75.616;2023-05-01T02:12:30;98347.03;;;10.32
74915;BMP280;63475;45.140;-75.616;2023-05-01T02:13:33;98340.00;;;10.29
74915;BMP280;63475;45.140;-75.616;2023-05-01T02:14:36;98348.31;;;10.37
74915;BMP280;63475;45.140;-75.616;2023-05-01T02:15:38;98349.50;;;10.36
74915;BMP280;63475;45.140;-75.616;2023-05-01T02:16:40;98322.06;;;10.24
74915;BMP280;63475;45.140;-75.616;2023-05-01T02:17:42;98340.38;;;10.37
74915;BMP280;63475;45.140;-75.616;2023-05-01T02:18:45;98339.63;;;10.36
74915;BMP280;63475;45.140;-75.616;2023-05-01T02:19:46;98333.16;;;10.37
74915;BMP280;63475;45.140;-75.616;2023-05-01T02:20:48;98338.47;;;10.37
74915;BMP280;63475;45.140;-75.616;2023-05-01T02:21:51;98332.72;;;10.39
74915;BMP280;63475;45.140;-75.616;2023-05-01T02:22:55;98312.06;;;10.28
74915;BMP280;63475;45.140;-75.616;2023-05-01T02:23:59;98321.69;;;10.40
74915;BMP280;63475;45.140;-75.616;2023-05-01T02:25:02;98313.75;;;10.40
74915;BMP280;63475;45.140;-75.616;2023-05-01T02:26:04;98307.72;;;10.40
74915;BMP280;63475;45.140;-75.616;2023-05-01T02:27:30;98300.97;;;10.39
74915;BMP280;63475;45.140;-75.616;2023-05-01T02:28:31;98295.84;;;10.35
74915;BMP280;63475;45.140;-75.616;2023-05-01T02:29:33;98293.75;;;10.39
74915;BMP280;63475;45.140;-75.616;2023-05-01T02:30:35;98290.63;;;10.41
74915;BMP280;63475;45.140;-75.616;2023-05-01T02:31:37;98282.00;;;10.40
74915;BMP280;63475;45.140;-75.616;2023-05-01T02:32:38;98284.91;;;10.42
74915;BMP280;63475;45.140;-75.616;2023-05-01T02:33:39;98276.22;;;10.42
74915;BMP280;63475;45.140;-75.616;2023-05-01T02:34:40;98272.13;;;10.41
74915;BMP280;63475;45.140;-75.616;2023-05-01T02:35:43;98269.47;;;10.41
74915;BMP280;63475;45.140;-75.616;2023-05-01T02:36:44;98270.22;;;10.41
74915;BMP280;63475;45.140;-75.616;2023-05-01T02:37:45;98249.31;;;10.29
74915;BMP280;63475;45.140;-75.616;2023-05-01T02:38:46;98262.56;;;10.43
74915;BMP280;63475;45.140;-75.616;2023-05-01T02:39:50;98264.28;;;10.46
74915;BMP280;63475;45.140;-75.616;2023-05-01T02:40:53;98262.84;;;10.45
74915;BMP280;63475;45.140;-75.616;2023-05-01T02:41:57;98221.56;;;10.24
74915;BMP280;63475;45.140;-75.616;2023-05-01T02:43:04;98243.13;;;10.46
74915;BMP280;63475;45.140;-75.616;2023-05-01T02:44:09;98247.69;;;10.46
74915;BMP280;63475;45.140;-75.616;2023-05-01T02:45:18;98239.47;;;10.44
74915;BMP280;63475;45.140;-75.616;2023-05-01T02:46:20;98236.09;;;10.43
74915;BMP280;63475;45.140;-75.616;2023-05-01T02:47:26;98230.78;;;10.43
74915;BMP280;63475;45.140;-75.616;2023-05-01T02:48:27;98200.84;;;10.23
74915;BMP280;63475;45.140;-75.616;2023-05-01T02:49:30;98231.53;;;10.44
74915;BMP280;63475;45.140;-75.616;2023-05-01T02:50:32;98227.41;;;10.43
74915;BMP280;63475;45.140;-75.616;2023-05-01T02:51:34;98225.94;;;10.42
74915;BMP280;63475;45.140;-75.616;2023-05-01T02:52:36;98206.53;;;10.30
74915;BMP280;63475;45.140;-75.616;2023-05-01T02:53:38;98190.22;;;10.32
74915;BMP280;63475;45.140;-75.616;2023-05-01T02:54:39;98190.94;;;10.32
74915;BMP280;63475;45.140;-75.616;2023-05-01T02:55:41;98208.44;;;10.44
74915;BMP280;63475;45.140;-75.616;2023-05-01T02:56:45;98205.53;;;10.42
74915;BMP280;63475;45.140;-75.616;2023-05-01T02:57:46;98200.97;;;10.43
74915;BMP280;63475;45.140;-75.616;2023-05-01T02:58:47;98200.22;;;10.42
74915;BMP280;63475;45.140;-75.616;2023-05-01T02:59:49;98195.66;;;10.43
74915;BMP280;63475;45.140;-75.616;2023-05-01T03:00:50;98194.94;;;10.42
74915;BMP280;63475;45.140;-75.616;2023-05-01T03:01:51;98199.03;;;10.43
74915;BMP280;63475;45.140;-75.616;2023-05-01T03:02:52;98195.22;;;10.44
74915;BMP280;63475;45.140;-75.616;2023-05-01T03:03:53;98191.09;;;10.43
74915;BMP280;63475;45.140;-75.616;2023-05-01T03:04:54;98180.25;;;10.41
74915;BMP280;63475;45.140;-75.616;2023-05-01T03:05:55;98178.81;;;10.40
74915;BMP280;63475;45.140;-75.616;2023-05-01T03:06:56;98165.03;;;10.36
74915;BMP280;63475;45.140;-75.616;2023-05-01T03:07:57;98171.31;;;10.39
74915;BMP280;63475;45.140;-75.616;2023-05-01T03:08:58;98165.47;;;10.35
74915;BMP280;63475;45.140;-75.616;2023-05-01T03:10:06;98148.06;;;10.28
74915;BMP280;63475;45.140;-75.616;2023-05-01T03:11:07;98156.63;;;10.38
74915;BMP280;63475;45.140;-75.616;2023-05-01T03:12:08;98156.34;;;10.36
74915;BMP280;63475;45.140;-75.616;2023-05-01T03:13:09;98140.75;;;10.38
74915;BMP280;63475;45.140;-75.616;2023-05-01T03:14:11;98146.78;;;10.38
74915;BMP280;63475;45.140;-75.616;2023-05-01T03:15:12;98146.78;;;10.38
74915;BMP280;63475;45.140;-75.616;2023-05-01T03:16:13;98148.69;;;10.38
74915;BMP280;63475;45.140;-75.616;2023-05-01T03:17:13;98143.84;;;10.36
74915;BMP280;63475;45.140;-75.616;2023-05-01T03:18:14;98121.94;;;10.21
74915;BMP280;63475;45.140;-75.616;2023-05-01T03:19:15;98109.19;;;10.20
74915;BMP280;63475;45.140;-75.616;2023-05-01T03:20:16;98136.19;;;10.38
74915;BMP280;63475;45.140;-75.616;2023-05-01T03:21:17;98130.19;;;10.38
74915;BMP280;63475;45.140;-75.616;2023-05-01T03:22:18;98124.88;;;10.38
74915;BMP280;63475;45.140;-75.616;2023-05-01T03:23:19;98116.31;;;10.28
74915;BMP280;63475;45.140;-75.616;2023-05-01T03:24:20;98119.97;;;10.31
74915;BMP280;63475;45.140;-75.616;2023-05-01T03:25:21;98108.06;;;10.26
74915;BMP280;63475;45.140;-75.616;2023-05-01T03:26:22;98104.72;;;10.26
74915;BMP280;63475;45.140;-75.616;2023-05-01T03:27:23;98109.47;;;10.36
74915;BMP280;63475;45.140;-75.616;2023-05-01T03:28:24;98119.03;;;10.34
74915;BMP280;63475;45.140;-75.616;2023-05-01T03:29:25;98102.25;;;10.37
74915;BMP280;63475;45.140;-75.616;2023-05-01T03:30:26;98100.06;;;10.35
74915;BMP280;63475;45.140;-75.616;2023-05-01T03:31:27;98089.09;;;10.28
74915;BMP280;63475;45.140;-75.616;2023-05-01T03:32:28;98090.41;;;10.32
74915;BMP280;63475;45.140;-75.616;2023-05-01T03:33:29;98096.69;;;10.35
74915;BMP280;63475;45.140;-75.616;2023-05-01T03:34:31;98102.78;;;10.26
74915;BMP280;63475;45.140;-75.616;2023-05-01T03:35:32;98091.50;;;10.26
74915;BMP280;63475;45.140;-75.616;2023-05-01T03:36:33;98089.75;;;10.23
74915;BMP280;63475;45.140;-75.616;2023-05-01T03:37:34;98089.56;;;10.26
74915;BMP280;63475;45.140;-75.616;2023-05-01T03:38:35;98068.69;;;10.14
74915;BMP280;63475;45.140;-75.616;2023-05-01T03:39:36;98078.00;;;10.24
74915;BMP280;63475;45.140;-75.616;2023-05-01T03:40:37;98074.16;;;10.25
74915;BMP280;63475;45.140;-75.616;2023-05-01T03:41:44;98067.41;;;10.24
74915;BMP280;63475;45.140;-75.616;2023-05-01T03:42:45;98057.13;;;10.26
74915;BMP280;63475;45.140;-75.616;2023-05-01T03:43:46;98061.41;;;10.23
74915;BMP280;63475;45.140;-75.616;2023-05-01T03:44:47;98058.94;;;10.20
74915;BMP280;63475;45.140;-75.616;2023-05-01T03:45:49;98058.53;;;10.27
74915;BMP280;63475;45.140;-75.616;2023-05-01T03:46:50;98041.00;;;10.09
74915;BMP280;63475;45.140;-75.616;2023-05-01T03:47:51;98038.50;;;10.20
74915;BMP280;63475;45.140;-75.616;2023-05-01T03:48:52;98040.41;;;10.20
74915;BMP280;63475;45.140;-75.616;2023-05-01T03:49:54;98031.56;;;10.23
74915;BMP280;63475;45.140;-75.616;2023-05-01T03:50:55;98026.72;;;10.21
74915;BMP280;63475;45.140;-75.616;2023-05-01T03:51:57;98032.97;;;10.18
74915;BMP280;63475;45.140;-75.616;2023-05-01T03:52:58;98042.06;;;10.17
74915;BMP280;63475;45.140;-75.616;2023-05-01T03:53:59;98038.25;;;10.18
74915;BMP280;63475;45.140;-75.616;2023-05-01T03:55:01;98024.53;;;10.20
74915;BMP280;63475;45.140;-75.616;2023-05-01T03:56:02;98020.91;;;10.17
74915;BMP280;63475;45.140;-75.616;2023-05-01T03:57:04;98013.44;;;10.16
74915;BMP280;63475;45.140;-75.616;2023-05-01T03:58:05;97994.97;;;10.01
74915;BMP280;63475;45.140;-75.616;2023-05-01T03:59:06;98012.72;;;10.15
74915;BMP280;63475;45.140;-75.616;2023-05-01T04:00:08;98005.81;;;10.03
74915;BMP280;63475;45.140;-75.616;2023-05-01T04:01:10;98016.25;;;10.12
74915;BMP280;63475;45.140;-75.616;2023-05-01T04:02:12;98005.22;;;10.14
74915;BMP280;63475;45.140;-75.616;2023-05-01T04:03:13;98009.06;;;10.13
74915;BMP280;63475;45.140;-75.616;2023-05-01T04:04:14;97993.78;;;10.02
74915;BMP280;63475;45.140;-75.616;2023-05-01T04:05:15;97991.00;;;10.11
74915;BMP280;63475;45.140;-75.616;2023-05-01T04:06:15;98000.25;;;10.01
74915;BMP280;63475;45.140;-75.616;2023-05-01T04:07:17;97992.13;;;10.04
74915;BMP280;63475;45.140;-75.616;2023-05-01T04:08:18;97990.94;;;10.05
74915;BMP280;63475;45.140;-75.616;2023-05-01T04:09:19;97989.75;;;10.06
74915;BMP280;63475;45.140;-75.616;2023-05-01T04:10:20;97990.47;;;10.07
74915;BMP280;63475;45.140;-75.616;2023-05-01T04:11:23;97974.34;;;10.05
74915;BMP280;63475;45.140;-75.616;2023-05-01T04:12:24;97970.72;;;10.02
74915;BMP280;63475;45.140;-75.616;2023-05-01T04:13:26;97974.34;;;10.05
74915;BMP280;63475;45.140;-75.616;2023-05-01T04:14:27;97969.78;;;10.05
74915;BMP280;63475;45.140;-75.616;2023-05-01T04:15:28;97964.03;;;10.07
74915;BMP280;63475;45.140;-75.616;2023-05-01T04:16:29;97964.03;;;10.07
74915;BMP280;63475;45.140;-75.616;2023-05-01T04:17:31;97959.94;;;10.06
74915;BMP280;63475;45.140;-75.616;2023-05-01T04:18:32;97952.94;;;10.03
74915;BMP280;63475;45.140;-75.616;2023-05-01T04:19:33;97938.72;;;10.00
74915;BMP280;63475;45.140;-75.616;2023-05-01T04:20:34;97944.53;;;10.04
74915;BMP280;63475;45.140;-75.616;2023-05-01T04:21:35;97931.78;;;10.03
74915;BMP280;63475;45.140;-75.616;2023-05-01T04:22:36;97938.25;;;10.02
74915;BMP280;63475;45.140;-75.616;2023-05-01T04:23:37;97948.28;;;9.98
74915;BMP280;63475;45.140;-75.616;2023-05-01T04:24:39;97941.28;;;9.95
74915;BMP280;63475;45.140;-75.616;2023-05-01T04:25:40;97927.41;;;9.85
74915;BMP280;63475;45.140;-75.616;2023-05-01T04:26:41;97945.91;;;10.00
74915;BMP280;63475;45.140;-75.616;2023-05-01T04:27:42;97943.28;;;10.00
74915;BMP280;63475;45.140;-75.616;2023-05-01T04:28:43;97942.53;;;9.99
74915;BMP280;63475;45.140;-75.616;2023-05-01T04:29:44;97930.13;;;9.91
74915;BMP280;63475;45.140;-75.616;2023-05-01T04:30:45;97936.88;;;9.92
74915;BMP280;63475;45.140;-75.616;2023-05-01T04:31:46;97937.47;;;9.96
74915;BMP280;63475;45.140;-75.616;2023-05-01T04:32:47;97942.16;;;9.92
74915;BMP280;63475;45.140;-75.616;2023-05-01T04:33:48;97934.09;;;9.95
74915;BMP280;63475;45.140;-75.616;2023-05-01T04:34:49;97933.34;;;9.95
74915;BMP280;63475;45.140;-75.616;2023-05-01T04:35:50;97926.31;;;9.92
74915;BMP280;63475;45.140;-75.616;2023-05-01T04:36:51;97929.53;;;9.96
74915;BMP280;63475;45.140;-75.616;2023-05-01T04:37:52;97936.53;;;9.99
74915;BMP280;63475;45.140;-75.616;2023-05-01T04:38:59;97934.81;;;9.96
74915;BMP280;63475;45.140;-75.616;2023-05-01T04:40:00;97935.69;;;9.93
74915;BMP280;63475;45.140;-75.616;2023-05-01T04:41:01;97914.38;;;9.82
74915;BMP280;63475;45.140;-75.616;2023-05-01T04:42:03;97903.94;;;9.72
74915;BMP280;63475;45.140;-75.616;2023-05-01T04:43:04;97927.34;;;9.94
74915;BMP280;63475;45.140;-75.616;2023-05-01T04:44:05;97931.59;;;9.92
74915;BMP280;63475;45.140;-75.616;2023-05-01T04:45:06;97912.41;;;9.77
74915;BMP280;63475;45.140;-75.616;2023-05-01T04:46:07;97929.41;;;9.90
74915;BMP280;63475;45.140;-75.616;2023-05-01T04:47:08;97921.22;;;9.88
74915;BMP280;63475;45.140;-75.616;2023-05-01T04:48:09;97904.75;;;9.79
74915;BMP280;63475;45.140;-75.616;2023-05-01T04:49:10;97916.13;;;9.85
74915;BMP280;63475;45.140;-75.616;2023-05-01T04:50:11;97908.84;;;9.80
74915;BMP280;63475;45.140;-75.616;2023-05-01T04:51:12;97909.19;;;9.87
74915;BMP280;63475;45.140;-75.616;2023-05-01T04:52:13;97897.44;;;9.88
74915;BMP280;63475;45.140;-75.616;2023-05-01T04:53:14;97896.97;;;9.90
74915;BMP280;63475;45.140;-75.616;2023-05-01T04:54:14;97897.69;;;9.90
74915;BMP280;63475;45.140;-75.616;2023-05-01T04:55:15;97893.34;;;9.87
74915;BMP280;63475;45.140;-75.616;2023-05-01T04:56:16;97889.03;;;9.90
74915;BMP280;63475;45.140;-75.616;2023-05-01T04:57:17;97884.50;;;9.76
74915;BMP280;63475;45.140;-75.616;2023-05-01T04:58:18;97881.25;;;9.81
74915;BMP280;63475;45.140;-75.616;2023-05-01T04:59:19;97866.03;;;9.76
74915;BMP280;63475;45.140;-75.616;2023-05-01T05:00:20;97884.41;;;9.85
74915;BMP280;63475;45.140;-75.616;2023-05-01T05:01:21;97879.22;;;9.76
74915;BMP280;63475;45.140;-75.616;2023-05-01T05:02:22;97874.94;;;9.78
74915;BMP280;63475;45.140;-75.616;2023-05-01T05:03:23;97862.66;;;9.75
74915;BMP280;63475;45.140;-75.616;2023-05-01T05:04:24;97862.75;;;9.81
74915;BMP280;63475;45.140;-75.616;2023-05-01T05:05:26;97852.16;;;9.81
74915;BMP280;63475;45.140;-75.616;2023-05-01T05:06:27;97848.84;;;9.65
74915;BMP280;63475;45.140;-75.616;2023-05-01T05:07:28;97841.44;;;9.69
74915;BMP280;63475;45.140;-75.616;2023-05-01T05:08:29;97844.88;;;9.76
74915;BMP280;63475;45.140;-75.616;2023-05-01T05:09:30;97831.94;;;9.78
74915;BMP280;63475;45.140;-75.616;2023-05-01T05:10:31;97834.56;;;9.78
74915;BMP280;63475;45.140;-75.616;2023-05-01T05:11:32;97819.00;;;9.80
74915;BMP280;63475;45.140;-75.616;2023-05-01T05:12:33;97820.44;;;9.81
74915;BMP280;63475;45.140;-75.616;2023-05-01T05:13:34;97816.06;;;9.78
74915;BMP280;63475;45.140;-75.616;2023-05-01T05:14:35;97817.25;;;9.77
74915;BMP280;63475;45.140;-75.616;2023-05-01T05:15:36;97811.47;;;9.72
74915;BMP280;63475;45.140;-75.616;2023-05-01T05:16:37;97804.72;;;9.71
74915;BMP280;63475;45.140;-75.616;2023-05-01T05:17:38;97793.34;;;9.65
74915;BMP280;63475;45.140;-75.616;2023-05-01T05:18:39;97793.88;;;9.69
74915;BMP280;63475;45.140;-75.616;2023-05-01T05:19:40;97802.06;;;9.71
74915;BMP280;63475;45.140;-75.616;2023-05-01T05:20:41;97796.06;;;9.71
74915;BMP280;63475;45.140;-75.616;2023-05-01T05:21:41;97786.94;;;9.72
74915;BMP280;63475;45.140;-75.616;2023-05-01T05:22:42;97784.03;;;9.70
74915;BMP280;63475;45.140;-75.616;2023-05-01T05:23:43;97776.88;;;9.76
74915;BMP280;63475;45.140;-75.616;2023-05-01T05:24:44;97769.41;;;9.74
74915;BMP280;63475;45.140;-75.616;2023-05-01T05:25:46;97765.59;;;9.76
74915;BMP280;63475;45.140;-75.616;2023-05-01T05:26:47;97758.34;;;9.70
74915;BMP280;63475;45.140;-75.616;2023-05-01T05:27:48;97759.78;;;9.71
74915;BMP280;63475;45.140;-75.616;2023-05-01T05:28:49;97752.28;;;9.64
74915;BMP280;63475;45.140;-75.616;2023-05-01T05:29:50;97756.81;;;9.64
74915;BMP280;63475;45.140;-75.616;2023-05-01T05:30:53;97755.44;;;9.68
74915;BMP280;63475;45.140;-75.616;2023-05-01T05:31:53;97747.44;;;9.63
74915;BMP280;63475;45.140;-75.616;2023-05-01T05:32:56;97762.84;;;9.64
74915;BMP280;63475;45.140;-75.616;2023-05-01T05:33:57;97754.91;;;9.64
74915;BMP280;63475;45.140;-75.616;2023-05-01T05:34:58;97765.25;;;9.68
74915;BMP280;63475;45.140;-75.616;2023-05-01T05:35:59;97756.56;;;9.62
74915;BMP280;63475;45.140;-75.616;2023-05-01T05:37:00;97755.38;;;9.63
74915;BMP280;63475;45.140;-75.616;2023-05-01T05:38:01;97751.53;;;9.64
74915;BMP280;63475;45.140;-75.616;2023-05-01T05:39:02;97761.56;;;9.60
74915;BMP280;63475;45.140;-75.616;2023-05-01T05:40:03;97749.81;;;9.61
74915;BMP280;63475;45.140;-75.616;2023-05-01T05:41:05;97755.81;;;9.61
74915;BMP280;63475;45.140;-75.616;2023-05-01T05:42:06;97760.19;;;9.64
74915;BMP280;63475;45.140;-75.616;2023-05-01T05:43:07;97759.00;;;9.65
74915;BMP280;63475;45.140;-75.616;2023-05-01T05:44:08;97768.31;;;9.61
74915;BMP280;63475;45.140;-75.616;2023-05-01T05:45:09;97759.66;;;9.60
74915;BMP280;63475;45.140;-75.616;2023-05-01T05:46:10;97762.56;;;9.62
74915;BMP280;63475;45.140;-75.616;2023-05-01T05:47:10;97718.28;;;9.37
74915;BMP280;63475;45.140;-75.616;2023-05-01T05:48:11;97732.34;;;9.49
74915;BMP280;63475;45.140;-75.616;2023-05-01T05:49:12;97751.09;;;9.65
74915;BMP280;63475;45.140;-75.616;2023-05-01T05:50:13;97745.06;;;9.65
74915;BMP280;63475;45.140;-75.616;2023-05-01T05:51:14;97749.41;;;9.68
74915;BMP280;63475;45.140;-75.616;2023-05-01T05:52:15;97736.41;;;9.64
74915;BMP280;63475;45.140;-75.616;2023-05-01T05:53:18;97733.97;;;9.61
74915;BMP280;63475;45.140;-75.616;2023-05-01T05:54:18;97745.06;;;9.65
74915;BMP280;63475;45.140;-75.616;2023-05-01T05:55:19;97739.06;;;9.64
74915;BMP280;63475;45.140;-75.616;2023-05-01T05:56:20;97740.25;;;9.63
74915;BMP280;63475;45.140;-75.616;2023-05-01T05:57:21;97730.13;;;9.62
74915;BMP280;63475;45.140;-75.616;2023-05-01T05:58:22;97727.03;;;9.63
74915;BMP280;63475;45.140;-75.616;2023-05-01T05:59:24;97732.31;;;9.63
74915;BMP280;63475;45.140;-75.616;2023-05-01T06:00:25;97722.38;;;9.58
74915;BMP280;63475;45.140;-75.616;2023-05-01T06:01:25;97715.00;;;9.62
74915;BMP280;63475;45.140;-75.616;2023-05-01T06:02:26;97709.72;;;9.62
74915;BMP280;63475;45.140;-75.616;2023-05-01T06:03:28;97711.09;;;9.58
74915;BMP280;63475;45.140;-75.616;2023-05-01T06:04:29;97708.72;;;9.60
74915;BMP280;63475;45.140;-75.616;2023-05-01T06:05:30;97698.94;;;9.66
74915;BMP280;63475;45.140;-75.616;2023-05-01T06:06:32;97697.25;;;9.63
74915;BMP280;63475;45.140;-75.616;2023-05-01T06:07:33;97677.53;;;9.44